sensor_id;sensor_type;location;lat;lon;timestamp;temperature;humidity
51825;DHT22;37879;52.986;6.282;2023-05-08T00:00:39;12.50;99.90
51825;DHT22;37879;52.986;6.282;2023-05-08T00:03:05;12.50;99.90
51825;DHT22;37879;52.986;6.282;2023-05-08T00:05:30;12.50;99.90
51825;DHT22;37879;52.986;6.282;2023-05-08T00:07:57;12.60;99.90
51825;DHT22;37879;52.986;6.282;2023-05-08T00:10:27;12.50;99.90
51825;DHT22;37879;52.986;6.282;2023-05-08T00:12:53;12.50;99.90
51825;DHT22;37879;52.986;6.282;2023-05-08T00:15:19;12.50;99.90
51825;DHT22;37879;52.986;6.282;2023-05-08T00:17:45;12.50;99.90
51825;DHT22;37879;52.986;6.282;2023-05-08T00:20:11;12.50;99.90
51825;DHT22;37879;52.986;6.282;2023-05-08T00:22:37;12.40;99.90
51825;DHT22;37879;52.986;6.282;2023-05-08T00:25:03;12.40;99.90
51825;DHT22;37879;52.986;6.282;2023-05-08T00:27:30;12.40;99.90
51825;DHT22;37879;52.986;6.282;2023-05-08T00:29:56;12.40;99.90
51825;DHT22;37879;52.986;6.282;2023-05-08T00:32:22;12.40;99.90
51825;DHT22;37879;52.986;6.282;2023-05-08T00:34:48;12.40;99.90
51825;DHT22;37879;52.986;6.282;2023-05-08T00:37:14;12.40;99.90
51825;DHT22;37879;52.986;6.282;2023-05-08T00:39:40;12.40;99.90
51825;DHT22;37879;52.986;6.282;2023-05-08T00:42:05;12.70;99.90
51825;DHT22;37879;52.986;6.282;2023-05-08T00:44:31;12.40;99.90
51825;DHT22;37879;52.986;6.282;2023-05-08T00:46:57;12.30;99.90
51825;DHT22;37879;52.986;6.282;2023-05-08T00:49:23;12.30;99.90
51825;DHT22;37879;52.986;6.282;2023-05-08T00:51:51;12.30;99.90
51825;DHT22;37879;52.986;6.282;2023-05-08T00:54:19;12.30;99.90
51825;DHT22;37879;52.986;6.282;2023-05-08T00:56:45;12.30;99.90
51825;DHT22;37879;52.986;6.282;2023-05-08T00:59:13;12.20;99.90
51825;DHT22;37879;52.986;6.282;2023-05-08T01:01:40;12.20;99.90
51825;DHT22;37879;52.986;6.282;2023-05-08T01:04:06;12.20;99.90
51825;DHT22;37879;52.986;6.282;2023-05-08T01:06:32;12.10;99.90
51825;DHT22;37879;52.986;6.282;2023-05-08T01:08:59;12.00;99.90
51825;DHT22;37879;52.986;6.282;2023-05-08T01:11:42;12.00;99.90
51825;DHT22;37879;52.986;6.282;2023-05-08T01:34:20;11.70;99.90
51825;DHT22;37879;52.986;6.282;2023-05-08T01:36:52;11.60;99.90
51825;DHT22;37879;52.986;6.282;2023-05-08T01:42:47;11.50;99.90
51825;DHT22;37879;52.986;6.282;2023-05-08T01:45:20;11.50;99.90
51825;DHT22;37879;52.986;6.282;2023-05-08T01:47:54;11.40;99.90
51825;DHT22;37879;52.986;6.282;2023-05-08T01:50:28;11.40;99.90
51825;DHT22;37879;52.986;6.282;2023-05-08T01:53:04;11.40;99.90
51825;DHT22;37879;52.986;6.282;2023-05-08T01:55:35;11.40;99.90
51825;DHT22;37879;52.986;6.282;2023-05-08T01:58:07;11.30;99.90
51825;DHT22;37879;52.986;6.282;2023-05-08T02:00:33;11.30;99.90
51825;DHT22;37879;52.986;6.282;2023-05-08T02:03:00;11.30;99.90
51825;DHT22;37879;52.986;6.282;2023-05-08T02:05:27;11.30;99.90
51825;DHT22;37879;52.986;6.282;2023-05-08T02:07:54;11.50;99.90
51825;DHT22;37879;52.986;6.282;2023-05-08T02:10:21;11.20;99.90
51825;DHT22;37879;52.986;6.282;2023-05-08T02:12:49;11.20;99.90
51825;DHT22;37879;52.986;6.282;2023-05-08T02:15:15;11.20;99.90
51825;DHT22;37879;52.986;6.282;2023-05-08T02:17:42;11.10;99.90
51825;DHT22;37879;52.986;6.282;2023-05-08T02:20:11;11.10;99.90
51825;DHT22;37879;52.986;6.282;2023-05-08T02:22:42;11.10;99.90
51825;DHT22;37879;52.986;6.282;2023-05-08T02:25:09;11.10;99.90
51825;DHT22;37879;52.986;6.282;2023-05-08T02:27:43;11.10;99.90
51825;DHT22;37879;52.986;6.282;2023-05-08T02:30:13;11.00;99.90
51825;DHT22;37879;52.986;6.282;2023-05-08T02:32:44;11.00;99.90
51825;DHT22;37879;52.986;6.282;2023-05-08T02:35:13;11.00;99.90
51825;DHT22;37879;52.986;6.282;2023-05-08T02:37:41;10.90;99.90
51825;DHT22;37879;52.986;6.282;2023-05-08T02:40:09;10.90;99.90
51825;DHT22;37879;52.986;6.282;2023-05-08T02:42:36;10.90;99.90
51825;DHT22;37879;52.986;6.282;2023-05-08T02:45:03;10.80;99.90
51825;DHT22;37879;52.986;6.282;2023-05-08T02:53:33;10.80;99.90
51825;DHT22;37879;52.986;6.282;2023-05-08T02:56:12;10.80;99.90
51825;DHT22;37879;52.986;6.282;2023-05-08T02:58:47;10.80;99.90
51825;DHT22;37879;52.986;6.282;2023-05-08T03:01:23;10.80;99.90
51825;DHT22;37879;52.986;6.282;2023-05-08T03:04:14;10.80;99.90
51825;DHT22;37879;52.986;6.282;2023-05-08T03:06:44;10.80;99.90
51825;DHT22;37879;52.986;6.282;2023-05-08T03:09:15;10.70;99.90
51825;DHT22;37879;52.986;6.282;2023-05-08T03:11:44;10.80;99.90
51825;DHT22;37879;52.986;6.282;2023-05-08T03:14:13;10.70;99.90
51825;DHT22;37879;52.986;6.282;2023-05-08T03:16:41;11.00;99.90
51825;DHT22;37879;52.986;6.282;2023-05-08T03:19:23;10.70;99.90
51825;DHT22;37879;52.986;6.282;2023-05-08T03:21:53;10.70;99.90
51825;DHT22;37879;52.986;6.282;2023-05-08T03:24:21;10.70;99.90
51825;DHT22;37879;52.986;6.282;2023-05-08T03:26:48;10.70;99.90
51825;DHT22;37879;52.986;6.282;2023-05-08T03:29:15;10.60;99.90
51825;DHT22;37879;52.986;6.282;2023-05-08T03:31:43;10.60;99.90
51825;DHT22;37879;52.986;6.282;2023-05-08T03:34:11;10.60;99.90
51825;DHT22;37879;52.986;6.282;2023-05-08T03:36:37;10.50;99.90
51825;DHT22;37879;52.986;6.282;2023-05-08T03:39:03;10.50;99.90
51825;DHT22;37879;52.986;6.282;2023-05-08T03:41:29;10.50;99.90
51825;DHT22;37879;52.986;6.282;2023-05-08T03:43:56;10.50;99.90
51825;DHT22;37879;52.986;6.282;2023-05-08T03:46:23;10.50;99.90
51825;DHT22;37879;52.986;6.282;2023-05-08T03:48:50;10.40;99.90
51825;DHT22;37879;52.986;6.282;2023-05-08T03:51:17;10.80;99.90
51825;DHT22;37879;52.986;6.282;2023-05-08T03:53:44;10.40;99.90
51825;DHT22;37879;52.986;6.282;2023-05-08T03:56:09;10.40;99.90
51825;DHT22;37879;52.986;6.282;2023-05-08T03:58:46;10.40;99.90
51825;DHT22;37879;52.986;6.282;2023-05-08T04:01:24;10.30;99.90
51825;DHT22;37879;52.986;6.282;2023-05-08T04:04:03;10.40;99.90
51825;DHT22;37879;52.986;6.282;2023-05-08T04:06:45;10.40;99.90
51825;DHT22;37879;52.986;6.282;2023-05-08T04:09:18;10.30;99.90
51825;DHT22;37879;52.986;6.282;2023-05-08T04:12:04;10.30;99.90
51825;DHT22;37879;52.986;6.282;2023-05-08T04:14:42;10.30;99.90
51825;DHT22;37879;52.986;6.282;2023-05-08T04:17:10;10.30;99.90
51825;DHT22;37879;52.986;6.282;2023-05-08T04:19:45;10.30;99.90
51825;DHT22;37879;52.986;6.282;2023-05-08T04:22:12;10.30;99.90
51825;DHT22;37879;52.986;6.282;2023-05-08T04:24:42;10.30;99.90
51825;DHT22;37879;52.986;6.282;2023-05-08T04:27:09;10.30;99.90
51825;DHT22;37879;52.986;6.282;2023-05-08T04:29:36;10.30;99.90
51825;DHT22;37879;52.986;6.282;2023-05-08T04:32:04;10.50;99.90
51825;DHT22;37879;52.986;6.282;2023-05-08T04:34:30;10.30;99.90
51825;DHT22;37879;52.986;6.282;2023-05-08T04:36:56;10.30;99.90
51825;DHT22;37879;52.986;6.282;2023-05-08T04:39:22;10.80;99.90
51825;DHT22;37879;52.986;6.282;2023-05-08T04:41:47;10.40;99.90
51825;DHT22;37879;52.986;6.282;2023-05-08T04:44:15;10.40;99.90
51825;DHT22;37879;52.986;6.282;2023-05-08T04:46:41;10.40;99.90
51825;DHT22;37879;52.986;6.282;2023-05-08T04:49:07;10.40;99.90
51825;DHT22;37879;52.986;6.282;2023-05-08T04:51:33;10.40;99.90
51825;DHT22;37879;52.986;6.282;2023-05-08T04:53:59;10.50;99.90
51825;DHT22;37879;52.986;6.282;2023-05-08T04:56:25;11.00;99.90
51825;DHT22;37879;52.986;6.282;2023-05-08T04:58:51;10.50;99.90
51825;DHT22;37879;52.986;6.282;2023-05-08T05:01:16;10.60;99.90
51825;DHT22;37879;52.986;6.282;2023-05-08T05:03:42;10.70;99.90
51825;DHT22;37879;52.986;6.282;2023-05-08T05:06:08;10.70;99.90
51825;DHT22;37879;52.986;6.282;2023-05-08T05:08:33;10.70;99.90
51825;DHT22;37879;52.986;6.282;2023-05-08T05:10:59;10.80;99.90
51825;DHT22;37879;52.986;6.282;2023-05-08T05:13:25;11.30;99.90
51825;DHT22;37879;52.986;6.282;2023-05-08T05:15:50;11.00;99.90
51825;DHT22;37879;52.986;6.282;2023-05-08T05:18:19;11.10;99.90
51825;DHT22;37879;52.986;6.282;2023-05-08T05:20:45;11.20;99.90
51825;DHT22;37879;52.986;6.282;2023-05-08T05:23:11;11.30;99.90
51825;DHT22;37879;52.986;6.282;2023-05-08T05:25:37;11.30;99.90
51825;DHT22;37879;52.986;6.282;2023-05-08T05:28:02;11.30;99.90
51825;DHT22;37879;52.986;6.282;2023-05-08T05:30:28;11.30;99.90
51825;DHT22;37879;52.986;6.282;2023-05-08T05:32:54;11.30;99.90
51825;DHT22;37879;52.986;6.282;2023-05-08T05:35:19;11.80;99.90
51825;DHT22;37879;52.986;6.282;2023-05-08T05:37:45;11.40;99.90
51825;DHT22;37879;52.986;6.282;2023-05-08T05:40:11;11.50;99.90
51825;DHT22;37879;52.986;6.282;2023-05-08T05:42:38;11.50;99.90
51825;DHT22;37879;52.986;6.282;2023-05-08T05:45:04;11.50;99.90
51825;DHT22;37879;52.986;6.282;2023-05-08T05:47:30;11.60;99.90
51825;DHT22;37879;52.986;6.282;2023-05-08T05:49:56;11.60;99.90
51825;DHT22;37879;52.986;6.282;2023-05-08T05:52:22;11.70;99.90
51825;DHT22;37879;52.986;6.282;2023-05-08T05:54:47;11.70;99.90
51825;DHT22;37879;52.986;6.282;2023-05-08T05:57:13;11.80;99.90
51825;DHT22;37879;52.986;6.282;2023-05-08T05:59:39;11.60;99.90
51825;DHT22;37879;52.986;6.282;2023-05-08T06:02:06;12.00;99.90
51825;DHT22;37879;52.986;6.282;2023-05-08T06:04:32;12.00;99.90
51825;DHT22;37879;52.986;6.282;2023-05-08T06:06:58;12.10;99.90
51825;DHT22;37879;52.986;6.282;2023-05-08T06:09:23;12.20;99.90
51825;DHT22;37879;52.986;6.282;2023-05-08T06:11:49;12.30;99.90
51825;DHT22;37879;52.986;6.282;2023-05-08T06:14:15;12.40;99.90
51825;DHT22;37879;52.986;6.282;2023-05-08T06:16:40;12.60;99.90
51825;DHT22;37879;52.986;6.282;2023-05-08T06:19:06;12.50;99.90
51825;DHT22;37879;52.986;6.282;2023-05-08T06:21:32;12.60;99.90
51825;DHT22;37879;52.986;6.282;2023-05-08T06:23:58;12.60;99.90
51825;DHT22;37879;52.986;6.282;2023-05-08T06:26:24;12.70;99.90
51825;DHT22;37879;52.986;6.282;2023-05-08T06:28:50;12.70;99.90
51825;DHT22;37879;52.986;6.282;2023-05-08T06:31:16;13.00;99.90
51825;DHT22;37879;52.986;6.282;2023-05-08T06:33:41;12.90;99.90
51825;DHT22;37879;52.986;6.282;2023-05-08T06:36:07;13.00;99.90
51825;DHT22;37879;52.986;6.282;2023-05-08T06:38:33;13.00;99.90
51825;DHT22;37879;52.986;6.282;2023-05-08T06:40:59;13.10;99.90
51825;DHT22;37879;52.986;6.282;2023-05-08T06:43:24;13.10;99.90
51825;DHT22;37879;52.986;6.282;2023-05-08T06:45:50;13.10;99.90
51825;DHT22;37879;52.986;6.282;2023-05-08T06:48:17;13.20;99.90
51825;DHT22;37879;52.986;6.282;2023-05-08T06:50:43;13.20;99.90
51825;DHT22;37879;52.986;6.282;2023-05-08T06:53:09;13.30;99.90
51825;DHT22;37879;52.986;6.282;2023-05-08T06:55:34;13.40;99.90
51825;DHT22;37879;52.986;6.282;2023-05-08T06:58:00;13.30;99.90
51825;DHT22;37879;52.986;6.282;2023-05-08T07:00:26;13.40;99.90
51825;DHT22;37879;52.986;6.282;2023-05-08T07:02:51;13.40;99.90
51825;DHT22;37879;52.986;6.282;2023-05-08T07:05:17;13.30;99.90
51825;DHT22;37879;52.986;6.282;2023-05-08T07:07:44;13.40;99.90
51825;DHT22;37879;52.986;6.282;2023-05-08T07:10:10;13.40;99.90
51825;DHT22;37879;52.986;6.282;2023-05-08T07:12:36;13.50;99.90
51825;DHT22;37879;52.986;6.282;2023-05-08T07:15:02;13.50;99.90
51825;DHT22;37879;52.986;6.282;2023-05-08T07:17:28;13.70;99.90
51825;DHT22;37879;52.986;6.282;2023-05-08T07:19:55;13.80;99.90
51825;DHT22;37879;52.986;6.282;2023-05-08T07:22:20;14.00;99.90
51825;DHT22;37879;52.986;6.282;2023-05-08T07:24:46;14.10;99.90
51825;DHT22;37879;52.986;6.282;2023-05-08T07:27:12;14.20;99.90
51825;DHT22;37879;52.986;6.282;2023-05-08T07:29:39;14.20;99.90
51825;DHT22;37879;52.986;6.282;2023-05-08T07:32:08;14.30;99.90
51825;DHT22;37879;52.986;6.282;2023-05-08T07:34:34;14.70;99.90
51825;DHT22;37879;52.986;6.282;2023-05-08T07:37:00;14.40;99.90
51825;DHT22;37879;52.986;6.282;2023-05-08T07:39:25;14.50;99.90
51825;DHT22;37879;52.986;6.282;2023-05-08T07:41:51;14.60;99.90
51825;DHT22;37879;52.986;6.282;2023-05-08T07:44:16;14.50;99.90
51825;DHT22;37879;52.986;6.282;2023-05-08T07:46:42;14.60;99.90
51825;DHT22;37879;52.986;6.282;2023-05-08T07:49:08;14.70;99.90
51825;DHT22;37879;52.986;6.282;2023-05-08T07:51:33;14.70;99.90
51825;DHT22;37879;52.986;6.282;2023-05-08T07:53:59;14.80;99.90
51825;DHT22;37879;52.986;6.282;2023-05-08T07:56:25;14.80;99.90
51825;DHT22;37879;52.986;6.282;2023-05-08T07:58:51;14.90;99.90
51825;DHT22;37879;52.986;6.282;2023-05-08T08:01:17;15.00;99.90
51825;DHT22;37879;52.986;6.282;2023-05-08T08:03:46;15.10;99.90
51825;DHT22;37879;52.986;6.282;2023-05-08T08:06:11;15.20;99.90
51825;DHT22;37879;52.986;6.282;2023-05-08T08:08:37;15.30;99.90
51825;DHT22;37879;52.986;6.282;2023-05-08T08:11:04;15.30;99.90
51825;DHT22;37879;52.986;6.282;2023-05-08T08:13:30;15.40;99.90
51825;DHT22;37879;52.986;6.282;2023-05-08T08:15:57;15.50;99.90
51825;DHT22;37879;52.986;6.282;2023-05-08T08:18:23;15.50;99.90
51825;DHT22;37879;52.986;6.282;2023-05-08T08:20:48;15.60;99.90
51825;DHT22;37879;52.986;6.282;2023-05-08T08:23:14;15.70;99.90
51825;DHT22;37879;52.986;6.282;2023-05-08T08:25:39;15.80;99.90
51825;DHT22;37879;52.986;6.282;2023-05-08T08:28:05;15.80;99.90
51825;DHT22;37879;52.986;6.282;2023-05-08T08:30:31;15.80;99.90
51825;DHT22;37879;52.986;6.282;2023-05-08T08:32:57;16.00;99.90
51825;DHT22;37879;52.986;6.282;2023-05-08T08:35:27;16.10;99.90
51825;DHT22;37879;52.986;6.282;2023-05-08T08:37:54;16.20;99.90
51825;DHT22;37879;52.986;6.282;2023-05-08T08:40:20;16.20;99.90
51825;DHT22;37879;52.986;6.282;2023-05-08T08:42:46;16.30;99.90
51825;DHT22;37879;52.986;6.282;2023-05-08T08:45:12;16.40;99.90
51825;DHT22;37879;52.986;6.282;2023-05-08T08:47:38;16.60;99.90
51825;DHT22;37879;52.986;6.282;2023-05-08T08:50:08;16.50;99.90
51825;DHT22;37879;52.986;6.282;2023-05-08T08:52:50;16.60;99.90
51825;DHT22;37879;52.986;6.282;2023-05-08T08:55:19;16.70;99.90
51825;DHT22;37879;52.986;6.282;2023-05-08T09:00:29;16.80;99.90
51825;DHT22;37879;52.986;6.282;2023-05-08T09:02:56;16.90;99.90
51825;DHT22;37879;52.986;6.282;2023-05-08T09:05:22;16.90;99.90
51825;DHT22;37879;52.986;6.282;2023-05-08T09:07:50;17.00;99.90
51825;DHT22;37879;52.986;6.282;2023-05-08T09:10:18;17.10;99.90
51825;DHT22;37879;52.986;6.282;2023-05-08T09:12:44;17.20;99.90
51825;DHT22;37879;52.986;6.282;2023-05-08T09:15:09;17.20;99.90
51825;DHT22;37879;52.986;6.282;2023-05-08T09:17:36;17.40;99.90
51825;DHT22;37879;52.986;6.282;2023-05-08T09:20:01;17.50;99.90
51825;DHT22;37879;52.986;6.282;2023-05-08T09:22:28;17.60;99.90
51825;DHT22;37879;52.986;6.282;2023-05-08T09:24:57;17.70;99.90
51825;DHT22;37879;52.986;6.282;2023-05-08T09:27:28;17.80;99.90
51825;DHT22;37879;52.986;6.282;2023-05-08T09:30:07;17.90;99.90
51825;DHT22;37879;52.986;6.282;2023-05-08T09:32:38;17.90;99.90
51825;DHT22;37879;52.986;6.282;2023-05-08T09:35:05;17.90;99.90
51825;DHT22;37879;52.986;6.282;2023-05-08T09:37:31;18.00;99.90
51825;DHT22;37879;52.986;6.282;2023-05-08T09:40:19;18.20;99.90
51825;DHT22;37879;52.986;6.282;2023-05-08T09:42:46;18.30;99.90
51825;DHT22;37879;52.986;6.282;2023-05-08T09:45:25;18.30;99.90
51825;DHT22;37879;52.986;6.282;2023-05-08T09:47:52;18.50;99.90
51825;DHT22;37879;52.986;6.282;2023-05-08T09:50:18;18.50;99.90
51825;DHT22;37879;52.986;6.282;2023-05-08T09:52:47;18.50;99.90
51825;DHT22;37879;52.986;6.282;2023-05-08T09:55:13;18.60;99.90
51825;DHT22;37879;52.986;6.282;2023-05-08T09:57:54;18.70;99.90
51825;DHT22;37879;52.986;6.282;2023-05-08T10:00:21;18.80;99.90
51825;DHT22;37879;52.986;6.282;2023-05-08T10:02:58;18.90;99.90
51825;DHT22;37879;52.986;6.282;2023-05-08T10:05:29;19.00;99.90
51825;DHT22;37879;52.986;6.282;2023-05-08T10:08:17;19.10;99.90
51825;DHT22;37879;52.986;6.282;2023-05-08T10:10:41;19.30;99.90
51825;DHT22;37879;52.986;6.282;2023-05-08T10:13:07;19.20;99.90
51825;DHT22;37879;52.986;6.282;2023-05-08T10:15:33;19.30;99.90
51825;DHT22;37879;52.986;6.282;2023-05-08T10:18:05;19.30;99.90
51825;DHT22;37879;52.986;6.282;2023-05-08T10:20:33;19.30;99.90
51825;DHT22;37879;52.986;6.282;2023-05-08T10:23:00;19.30;99.90
51825;DHT22;37879;52.986;6.282;2023-05-08T10:25:32;19.30;99.90
51825;DHT22;37879;52.986;6.282;2023-05-08T10:28:28;19.30;99.90
51825;DHT22;37879;52.986;6.282;2023-05-08T10:30:59;19.30;99.90
51825;DHT22;37879;52.986;6.282;2023-05-08T10:33:30;19.30;99.90
51825;DHT22;37879;52.986;6.282;2023-05-08T10:35:59;19.30;99.90
51825;DHT22;37879;52.986;6.282;2023-05-08T10:38:26;19.40;99.90
51825;DHT22;37879;52.986;6.282;2023-05-08T10:40:52;19.30;99.90
51825;DHT22;37879;52.986;6.282;2023-05-08T10:43:23;19.40;99.90
51825;DHT22;37879;52.986;6.282;2023-05-08T10:45:51;19.50;99.90
51825;DHT22;37879;52.986;6.282;2023-05-08T10:53:56;19.80;99.90
51825;DHT22;37879;52.986;6.282;2023-05-08T10:56:27;19.90;99.90
51825;DHT22;37879;52.986;6.282;2023-05-08T10:58:57;19.90;99.90
51825;DHT22;37879;52.986;6.282;2023-05-08T11:01:24;20.10;99.90
51825;DHT22;37879;52.986;6.282;2023-05-08T11:03:51;20.20;99.90
51825;DHT22;37879;52.986;6.282;2023-05-08T11:06:40;20.30;99.90
51825;DHT22;37879;52.986;6.282;2023-05-08T11:09:03;20.40;99.90
51825;DHT22;37879;52.986;6.282;2023-05-08T11:11:30;20.60;99.90
51825;DHT22;37879;52.986;6.282;2023-05-08T11:19:24;20.80;99.90
51825;DHT22;37879;52.986;6.282;2023-05-08T11:22:18;20.90;99.90
51825;DHT22;37879;52.986;6.282;2023-05-08T11:27:16;21.10;99.90
51825;DHT22;37879;52.986;6.282;2023-05-08T11:29:42;21.10;99.90
51825;DHT22;37879;52.986;6.282;2023-05-08T11:32:09;21.30;99.90
51825;DHT22;37879;52.986;6.282;2023-05-08T11:37:10;21.30;99.90
51825;DHT22;37879;52.986;6.282;2023-05-08T11:39:36;21.30;99.90
51825;DHT22;37879;52.986;6.282;2023-05-08T11:45:09;21.30;99.90
51825;DHT22;37879;52.986;6.282;2023-05-08T11:47:39;21.30;99.90
51825;DHT22;37879;52.986;6.282;2023-05-08T11:50:08;21.30;99.90
51825;DHT22;37879;52.986;6.282;2023-05-08T11:52:35;21.30;99.90
51825;DHT22;37879;52.986;6.282;2023-05-08T11:55:05;21.50;99.90
51825;DHT22;37879;52.986;6.282;2023-05-08T11:57:32;21.70;99.90
51825;DHT22;37879;52.986;6.282;2023-05-08T12:00:10;21.90;99.90
51825;DHT22;37879;52.986;6.282;2023-05-08T12:02:40;22.00;99.90
51825;DHT22;37879;52.986;6.282;2023-05-08T12:05:07;22.20;99.90
51825;DHT22;37879;52.986;6.282;2023-05-08T12:07:45;22.20;99.90
51825;DHT22;37879;52.986;6.282;2023-05-08T12:10:12;22.30;99.90
51825;DHT22;37879;52.986;6.282;2023-05-08T12:12:38;22.40;99.90
51825;DHT22;37879;52.986;6.282;2023-05-08T12:15:14;22.50;99.90
51825;DHT22;37879;52.986;6.282;2023-05-08T12:17:41;22.50;99.90
51825;DHT22;37879;52.986;6.282;2023-05-08T12:20:16;22.70;99.90
51825;DHT22;37879;52.986;6.282;2023-05-08T12:22:49;22.70;99.90
51825;DHT22;37879;52.986;6.282;2023-05-08T12:25:16;22.80;99.90
51825;DHT22;37879;52.986;6.282;2023-05-08T12:27:43;22.80;99.90
51825;DHT22;37879;52.986;6.282;2023-05-08T12:30:11;22.80;99.90
51825;DHT22;37879;52.986;6.282;2023-05-08T12:32:40;22.90;99.90
51825;DHT22;37879;52.986;6.282;2023-05-08T12:35:07;22.90;99.90
51825;DHT22;37879;52.986;6.282;2023-05-08T12:37:33;23.00;99.90
51825;DHT22;37879;52.986;6.282;2023-05-08T12:39:59;23.00;99.90
51825;DHT22;37879;52.986;6.282;2023-05-08T12:42:45;23.00;99.90
51825;DHT22;37879;52.986;6.282;2023-05-08T12:45:27;23.00;99.90
51825;DHT22;37879;52.986;6.282;2023-05-08T12:48:00;23.00;99.90
51825;DHT22;37879;52.986;6.282;2023-05-08T12:50:50;23.10;99.90
51825;DHT22;37879;52.986;6.282;2023-05-08T12:53:28;23.20;99.90
51825;DHT22;37879;52.986;6.282;2023-05-08T12:55:59;23.30;99.90
51825;DHT22;37879;52.986;6.282;2023-05-08T12:58:37;23.30;99.90
51825;DHT22;37879;52.986;6.282;2023-05-08T13:01:10;23.30;99.90
51825;DHT22;37879;52.986;6.282;2023-05-08T13:03:57;23.40;99.90
51825;DHT22;37879;52.986;6.282;2023-05-08T13:06:29;23.40;99.90
51825;DHT22;37879;52.986;6.282;2023-05-08T13:09:39;23.50;99.90
51825;DHT22;37879;52.986;6.282;2023-05-08T13:12:31;23.40;99.90
51825;DHT22;37879;52.986;6.282;2023-05-08T13:17:50;23.50;99.90
51825;DHT22;37879;52.986;6.282;2023-05-08T13:20:16;23.80;99.90
51825;DHT22;37879;52.986;6.282;2023-05-08T13:22:52;24.00;99.90
51825;DHT22;37879;52.986;6.282;2023-05-08T13:25:18;24.10;99.90
51825;DHT22;37879;52.986;6.282;2023-05-08T13:27:45;23.90;99.90
51825;DHT22;37879;52.986;6.282;2023-05-08T13:30:12;23.90;99.90
51825;DHT22;37879;52.986;6.282;2023-05-08T13:32:48;23.90;99.90
51825;DHT22;37879;52.986;6.282;2023-05-08T13:35:20;23.80;99.90
51825;DHT22;37879;52.986;6.282;2023-05-08T13:37:49;23.70;99.90
51825;DHT22;37879;52.986;6.282;2023-05-08T13:40:22;23.70;99.90
51825;DHT22;37879;52.986;6.282;2023-05-08T13:42:51;23.70;99.90
51825;DHT22;37879;52.986;6.282;2023-05-08T13:45:19;23.60;99.90
51825;DHT22;37879;52.986;6.282;2023-05-08T13:47:48;23.50;99.90
51825;DHT22;37879;52.986;6.282;2023-05-08T13:53:06;23.30;99.90
51825;DHT22;37879;52.986;6.282;2023-05-08T13:55:46;23.20;99.90
51825;DHT22;37879;52.986;6.282;2023-05-08T13:58:12;23.20;99.90
51825;DHT22;37879;52.986;6.282;2023-05-08T14:00:44;23.10;99.90
51825;DHT22;37879;52.986;6.282;2023-05-08T14:03:22;23.00;99.90
51825;DHT22;37879;52.986;6.282;2023-05-08T14:06:23;22.40;99.90
51825;DHT22;37879;52.986;6.282;2023-05-08T14:08:51;23.10;99.90
51825;DHT22;37879;52.986;6.282;2023-05-08T14:11:17;23.10;99.90
51825;DHT22;37879;52.986;6.282;2023-05-08T14:13:46;23.20;99.90
51825;DHT22;37879;52.986;6.282;2023-05-08T14:16:12;23.10;99.90
51825;DHT22;37879;52.986;6.282;2023-05-08T14:18:43;22.60;99.90
51825;DHT22;37879;52.986;6.282;2023-05-08T14:21:15;23.60;99.90
51825;DHT22;37879;52.986;6.282;2023-05-08T14:23:43;23.90;99.90
51825;DHT22;37879;52.986;6.282;2023-05-08T14:26:09;23.90;99.90
51825;DHT22;37879;52.986;6.282;2023-05-08T14:28:35;24.00;99.90
51825;DHT22;37879;52.986;6.282;2023-05-08T14:31:00;24.00;99.90
51825;DHT22;37879;52.986;6.282;2023-05-08T14:33:26;23.80;99.90
51825;DHT22;37879;52.986;6.282;2023-05-08T14:35:52;23.70;99.90
51825;DHT22;37879;52.986;6.282;2023-05-08T14:38:17;23.70;99.90
51825;DHT22;37879;52.986;6.282;2023-05-08T14:40:43;23.80;99.90
51825;DHT22;37879;52.986;6.282;2023-05-08T14:43:08;23.90;99.90
51825;DHT22;37879;52.986;6.282;2023-05-08T14:45:34;24.10;99.90
51825;DHT22;37879;52.986;6.282;2023-05-08T14:48:00;24.30;99.90
51825;DHT22;37879;52.986;6.282;2023-05-08T14:50:25;24.40;99.90
51825;DHT22;37879;52.986;6.282;2023-05-08T14:52:52;24.50;99.90
51825;DHT22;37879;52.986;6.282;2023-05-08T14:55:18;24.70;99.90
51825;DHT22;37879;52.986;6.282;2023-05-08T14:57:45;24.60;99.90
51825;DHT22;37879;52.986;6.282;2023-05-08T15:00:12;24.50;99.90
51825;DHT22;37879;52.986;6.282;2023-05-08T15:02:38;24.40;99.90
51825;DHT22;37879;52.986;6.282;2023-05-08T15:05:04;24.20;99.90
51825;DHT22;37879;52.986;6.282;2023-05-08T15:07:30;24.00;99.90
51825;DHT22;37879;52.986;6.282;2023-05-08T15:09:56;23.90;99.90
51825;DHT22;37879;52.986;6.282;2023-05-08T15:12:21;23.70;99.90
51825;DHT22;37879;52.986;6.282;2023-05-08T15:14:47;23.50;99.90
51825;DHT22;37879;52.986;6.282;2023-05-08T15:17:13;23.40;99.90
51825;DHT22;37879;52.986;6.282;2023-05-08T15:19:38;23.20;99.90
51825;DHT22;37879;52.986;6.282;2023-05-08T15:22:04;23.10;99.90
51825;DHT22;37879;52.986;6.282;2023-05-08T15:24:30;23.10;99.90
51825;DHT22;37879;52.986;6.282;2023-05-08T15:26:56;23.10;99.90
51825;DHT22;37879;52.986;6.282;2023-05-08T15:29:21;23.40;99.90
51825;DHT22;37879;52.986;6.282;2023-05-08T15:31:47;23.40;99.90
51825;DHT22;37879;52.986;6.282;2023-05-08T15:34:12;23.50;99.90
51825;DHT22;37879;52.986;6.282;2023-05-08T15:36:38;23.50;99.90
51825;DHT22;37879;52.986;6.282;2023-05-08T15:39:04;23.40;99.90
51825;DHT22;37879;52.986;6.282;2023-05-08T15:41:30;23.30;99.90
51825;DHT22;37879;52.986;6.282;2023-05-08T15:43:56;23.20;99.90
51825;DHT22;37879;52.986;6.282;2023-05-08T15:46:22;23.10;99.90
51825;DHT22;37879;52.986;6.282;2023-05-08T15:48:47;23.10;99.90
51825;DHT22;37879;52.986;6.282;2023-05-08T15:51:13;23.00;99.90
51825;DHT22;37879;52.986;6.282;2023-05-08T15:53:38;23.00;99.90
51825;DHT22;37879;52.986;6.282;2023-05-08T15:56:05;23.00;99.90
51825;DHT22;37879;52.986;6.282;2023-05-08T15:58:30;23.00;99.90
51825;DHT22;37879;52.986;6.282;2023-05-08T16:00:56;23.00;99.90
51825;DHT22;37879;52.986;6.282;2023-05-08T16:03:22;22.90;99.90
51825;DHT22;37879;52.986;6.282;2023-05-08T16:05:48;22.90;99.90
51825;DHT22;37879;52.986;6.282;2023-05-08T16:08:14;22.90;99.90
51825;DHT22;37879;52.986;6.282;2023-05-08T16:10:40;22.90;99.90
51825;DHT22;37879;52.986;6.282;2023-05-08T16:13:06;22.90;99.90
51825;DHT22;37879;52.986;6.282;2023-05-08T16:15:32;22.80;99.90
51825;DHT22;37879;52.986;6.282;2023-05-08T16:17:57;22.80;99.90
51825;DHT22;37879;52.986;6.282;2023-05-08T16:20:23;22.70;99.90
51825;DHT22;37879;52.986;6.282;2023-05-08T16:22:53;22.60;99.90
51825;DHT22;37879;52.986;6.282;2023-05-08T16:25:19;22.40;99.90
51825;DHT22;37879;52.986;6.282;2023-05-08T16:27:45;22.00;99.90
51825;DHT22;37879;52.986;6.282;2023-05-08T16:30:10;21.70;99.90
51825;DHT22;37879;52.986;6.282;2023-05-08T16:32:36;21.60;99.90
51825;DHT22;37879;52.986;6.282;2023-05-08T16:35:02;21.50;99.90